UAE1049 VMMC-VVDN
Flight info
| Callsign | UAE1049 |
|---|---|
| Flight time | N/A |
| Altitude | 38000 |
| Route | VMMC/16 N0488F400 ALEY2P ALLEY V31 IDOSI/N0485F280 A1 IKELA/K0898F280 A1 BUNTA BUNT2D VVDN/17L |
| Aircraft | A359/H-A359/L |
Departure
| Time | N/A |
|---|---|
| Airport | Macau International Airport (VMMC) |
Arrival
| Time | 2026-04-15 16:12 |
|---|---|
| Airport | Da Nang International Airport (VVDN) |
| Time | Latitude | Longitude | Altitude | Speed | Heading |
|---|---|---|---|---|---|
| 2026-04-15 15:41 | 17.24395 | 110.03179 | 28016 ft | 448 kts | 236° |
| 2026-04-15 15:41 | 17.22664 | 110.00484 | 27995 ft | 444 kts | 236° |
| 2026-04-15 15:41 | 17.20952 | 109.97819 | 27999 ft | 439 kts | 236° |
| 2026-04-15 15:42 | 17.19256 | 109.95180 | 27997 ft | 436 kts | 236° |
| 2026-04-15 15:42 | 17.17570 | 109.92556 | 27999 ft | 433 kts | 236° |
| 2026-04-15 15:42 | 17.15893 | 109.89948 | 27981 ft | 431 kts | 236° |
| 2026-04-15 15:42 | 17.14212 | 109.87336 | 27676 ft | 436 kts | 236° |
| 2026-04-15 15:43 | 17.12501 | 109.84676 | 27130 ft | 444 kts | 236° |
| 2026-04-15 15:43 | 17.10773 | 109.81991 | 26999 ft | 443 kts | 236° |
| 2026-04-15 15:43 | 17.09059 | 109.79331 | 26996 ft | 439 kts | 236° |
| 2026-04-15 15:43 | 17.07361 | 109.76695 | 26998 ft | 436 kts | 236° |
| 2026-04-15 15:44 | 17.05668 | 109.74069 | 26791 ft | 438 kts | 236° |
| 2026-04-15 15:44 | 17.03951 | 109.71405 | 26253 ft | 447 kts | 236° |
| 2026-04-15 15:44 | 17.02198 | 109.68688 | 25623 ft | 456 kts | 236° |
| 2026-04-15 15:44 | 17.00409 | 109.65914 | 24996 ft | 463 kts | 236° |
| 2026-04-15 15:45 | 16.98603 | 109.63117 | 24390 ft | 468 kts | 236° |
| 2026-04-15 15:45 | 16.96779 | 109.60293 | 23839 ft | 467 kts | 236° |
| 2026-04-15 15:45 | 16.94971 | 109.57494 | 23216 ft | 462 kts | 236° |
| 2026-04-15 15:45 | 16.93185 | 109.54733 | 22594 ft | 456 kts | 236° |
| 2026-04-15 15:46 | 16.91437 | 109.52030 | 21988 ft | 455 kts | 236° |
| 2026-04-15 15:46 | 16.89669 | 109.49299 | 21367 ft | 453 kts | 236° |
| 2026-04-15 15:46 | 16.87912 | 109.46582 | 20696 ft | 448 kts | 236° |
| 2026-04-15 15:46 | 16.86192 | 109.43925 | 19953 ft | 436 kts | 236° |
| 2026-04-15 15:47 | 16.84508 | 109.41324 | 19206 ft | 431 kts | 236° |
| 2026-04-15 15:47 | 16.82827 | 109.38731 | 18464 ft | 431 kts | 236° |
| 2026-04-15 15:47 | 16.81138 | 109.36147 | 17721 ft | 429 kts | 236° |
| 2026-04-15 15:47 | 16.79465 | 109.33587 | 16951 ft | 425 kts | 236° |
| 2026-04-15 15:48 | 16.77806 | 109.31048 | 16217 ft | 421 kts | 236° |
| 2026-04-15 15:48 | 16.76168 | 109.28542 | 15468 ft | 415 kts | 236° |
| 2026-04-15 15:48 | 16.74557 | 109.26077 | 14723 ft | 408 kts | 236° |
| 2026-04-15 15:48 | 16.72969 | 109.23651 | 13969 ft | 403 kts | 236° |
| 2026-04-15 15:49 | 16.71397 | 109.21248 | 13233 ft | 398 kts | 236° |
| 2026-04-15 15:49 | 16.69846 | 109.18878 | 12476 ft | 394 kts | 236° |
| 2026-04-15 15:49 | 16.68310 | 109.16531 | 11702 ft | 390 kts | 236° |
| 2026-04-15 15:49 | 16.66787 | 109.14209 | 10969 ft | 385 kts | 236° |
| 2026-04-15 15:50 | 16.65283 | 109.11915 | 10218 ft | 381 kts | 236° |
| 2026-04-15 15:50 | 16.63795 | 109.09645 | 9557 ft | 377 kts | 236° |
| 2026-04-15 15:50 | 16.62315 | 109.07388 | 9211 ft | 376 kts | 236° |
| 2026-04-15 15:50 | 16.61335 | 109.05895 | 9148 ft | 379 kts | 236° |
| 2026-04-15 15:51 | 16.59856 | 109.03639 | 9135 ft | 375 kts | 236° |
| 2026-04-15 15:51 | 16.58367 | 109.01415 | 9133 ft | 373 kts | 233° |
| 2026-04-15 15:51 | 16.56555 | 108.99491 | 9137 ft | 374 kts | 219° |
| 2026-04-15 15:51 | 16.53686 | 108.97441 | 9137 ft | 373 kts | 213° |
| 2026-04-15 15:52 | 16.52242 | 108.96466 | 9137 ft | 374 kts | 213° |
| 2026-04-15 15:52 | 16.50060 | 108.94996 | 9137 ft | 374 kts | 213° |
| 2026-04-15 15:52 | 16.47879 | 108.93527 | 9137 ft | 374 kts | 213° |
| 2026-04-15 15:52 | 16.45696 | 108.92056 | 9137 ft | 374 kts | 213° |
| 2026-04-15 15:53 | 16.43514 | 108.90585 | 9137 ft | 374 kts | 213° |
| 2026-04-15 15:53 | 16.41328 | 108.89113 | 9137 ft | 374 kts | 213° |
| 2026-04-15 15:53 | 16.39150 | 108.87645 | 9137 ft | 374 kts | 213° |
| 2026-04-15 15:53 | 16.36968 | 108.86175 | 9137 ft | 374 kts | 213° |
| 2026-04-15 15:54 | 16.34786 | 108.84704 | 9137 ft | 374 kts | 213° |
| 2026-04-15 15:54 | 16.32605 | 108.83234 | 9137 ft | 374 kts | 213° |
| 2026-04-15 15:54 | 16.30422 | 108.81763 | 9137 ft | 373 kts | 213° |
| 2026-04-15 15:54 | 16.28307 | 108.80338 | 9126 ft | 340 kts | 213° |
| 2026-04-15 15:55 | 16.26458 | 108.79096 | 9125 ft | 293 kts | 213° |
| 2026-04-15 15:55 | 16.24838 | 108.78011 | 9127 ft | 268 kts | 213° |
| 2026-04-15 15:55 | 16.23287 | 108.76974 | 9133 ft | 263 kts | 213° |
| 2026-04-15 15:55 | 16.21748 | 108.75945 | 9136 ft | 262 kts | 213° |
| 2026-04-15 15:56 | 16.20215 | 108.74921 | 9137 ft | 262 kts | 213° |
| 2026-04-15 15:56 | 16.18683 | 108.73896 | 9137 ft | 262 kts | 213° |
| 2026-04-15 15:56 | 16.17145 | 108.72867 | 9140 ft | 264 kts | 213° |
| 2026-04-15 15:56 | 16.15604 | 108.71837 | 9137 ft | 262 kts | 213° |
| 2026-04-15 15:57 | 16.14070 | 108.70811 | 9137 ft | 262 kts | 213° |
| 2026-04-15 15:57 | 16.12539 | 108.69787 | 9137 ft | 262 kts | 213° |
| 2026-04-15 15:57 | 16.11009 | 108.68764 | 9092 ft | 262 kts | 213° |
| 2026-04-15 15:57 | 16.09490 | 108.67748 | 8723 ft | 258 kts | 213° |
| 2026-04-15 15:58 | 16.08006 | 108.66756 | 8042 ft | 257 kts | 213° |
| 2026-04-15 15:58 | 16.06490 | 108.65743 | 7301 ft | 255 kts | 213° |
| 2026-04-15 15:58 | 16.05004 | 108.64749 | 6547 ft | 253 kts | 213° |
| 2026-04-15 15:58 | 16.03530 | 108.63764 | 5817 ft | 250 kts | 213° |
| 2026-04-15 15:59 | 16.02091 | 108.62802 | 5317 ft | 249 kts | 213° |
| 2026-04-15 15:59 | 16.00637 | 108.61831 | 5149 ft | 249 kts | 213° |
| 2026-04-15 15:59 | 15.99185 | 108.60861 | 5133 ft | 248 kts | 213° |
| 2026-04-15 15:59 | 15.97738 | 108.59894 | 5136 ft | 247 kts | 213° |
| 2026-04-15 16:00 | 15.96292 | 108.58927 | 5136 ft | 247 kts | 213° |
| 2026-04-15 16:00 | 15.94849 | 108.57963 | 5136 ft | 247 kts | 213° |
| 2026-04-15 16:00 | 15.93407 | 108.56999 | 5136 ft | 247 kts | 213° |
| 2026-04-15 16:00 | 15.91954 | 108.56029 | 5139 ft | 249 kts | 213° |
| 2026-04-15 16:01 | 15.90503 | 108.55060 | 5136 ft | 247 kts | 213° |
| 2026-04-15 16:01 | 15.89060 | 108.54097 | 5136 ft | 247 kts | 213° |
| 2026-04-15 16:01 | 15.87616 | 108.53132 | 5137 ft | 247 kts | 213° |
| 2026-04-15 16:01 | 15.86174 | 108.52167 | 5136 ft | 247 kts | 213° |
| 2026-04-15 16:02 | 15.84731 | 108.51203 | 5137 ft | 247 kts | 213° |
| 2026-04-15 16:02 | 15.83289 | 108.50240 | 5136 ft | 247 kts | 213° |
| 2026-04-15 16:02 | 15.81857 | 108.49260 | 5135 ft | 246 kts | 217° |
| 2026-04-15 16:02 | 15.80740 | 108.47930 | 5143 ft | 245 kts | 242° |
| 2026-04-15 16:03 | 15.80023 | 108.46329 | 5136 ft | 245 kts | 248° |
| 2026-04-15 16:03 | 15.79382 | 108.44693 | 5137 ft | 245 kts | 248° |
| 2026-04-15 16:03 | 15.78748 | 108.43048 | 5136 ft | 245 kts | 248° |
| 2026-04-15 16:03 | 15.78122 | 108.41424 | 5137 ft | 245 kts | 249° |
| 2026-04-15 16:04 | 15.77491 | 108.39785 | 5136 ft | 245 kts | 248° |
| 2026-04-15 16:04 | 15.76858 | 108.38139 | 5136 ft | 245 kts | 249° |
| 2026-04-15 16:04 | 15.76227 | 108.36498 | 5136 ft | 245 kts | 249° |
| 2026-04-15 16:04 | 15.75595 | 108.34854 | 5137 ft | 245 kts | 248° |
| 2026-04-15 16:05 | 15.74963 | 108.33213 | 5139 ft | 245 kts | 249° |
| 2026-04-15 16:05 | 15.74330 | 108.31569 | 5138 ft | 245 kts | 248° |
| 2026-04-15 16:05 | 15.73886 | 108.29872 | 5136 ft | 246 kts | 267° |
| 2026-04-15 16:05 | 15.74212 | 108.28151 | 5137 ft | 245 kts | 295° |
| 2026-04-15 16:06 | 15.75249 | 108.26757 | 5141 ft | 245 kts | 315° |
| 2026-04-15 16:06 | 15.76517 | 108.25566 | 5135 ft | 246 kts | 318° |
| 2026-04-15 16:06 | 15.77813 | 108.24406 | 5138 ft | 246 kts | 318° |
| 2026-04-15 16:06 | 15.79286 | 108.23529 | 5133 ft | 241 kts | 341° |
| 2026-04-15 16:07 | 15.80880 | 108.23198 | 5076 ft | 228 kts | 353° |
| 2026-04-15 16:07 | 15.82453 | 108.23025 | 4705 ft | 227 kts | 352° |
| 2026-04-15 16:07 | 15.85531 | 108.22599 | 3735 ft | 223 kts | 351° |
| 2026-04-15 16:08 | 15.87043 | 108.22376 | 3275 ft | 215 kts | 351° |
| 2026-04-15 16:08 | 15.88456 | 108.22167 | 3145 ft | 195 kts | 351° |
| 2026-04-15 16:08 | 15.89770 | 108.21974 | 2940 ft | 188 kts | 351° |
| 2026-04-15 16:08 | 15.91066 | 108.21783 | 2467 ft | 186 kts | 351° |
| 2026-04-15 16:09 | 15.92295 | 108.21604 | 2138 ft | 170 kts | 351° |
| 2026-04-15 16:09 | 15.93439 | 108.21438 | 1927 ft | 164 kts | 350° |
| 2026-04-15 16:09 | 15.94526 | 108.21279 | 1708 ft | 150 kts | 350° |
| 2026-04-15 16:09 | 15.95521 | 108.21134 | 1518 ft | 139 kts | 351° |
| 2026-04-15 16:10 | 15.96474 | 108.20995 | 1343 ft | 138 kts | 350° |
| 2026-04-15 16:10 | 15.97424 | 108.20856 | 1157 ft | 137 kts | 350° |
| 2026-04-15 16:10 | 15.98369 | 108.20718 | 983 ft | 137 kts | 350° |
| 2026-04-15 16:10 | 15.99316 | 108.20579 | 794 ft | 137 kts | 350° |
| 2026-04-15 16:11 | 16.00248 | 108.20443 | 621 ft | 137 kts | 351° |
| 2026-04-15 16:11 | 16.01189 | 108.20305 | 427 ft | 136 kts | 351° |
| 2026-04-15 16:11 | 16.02127 | 108.20156 | 275 ft | 136 kts | 352° |
| 2026-04-15 16:11 | 16.03067 | 108.20023 | 93 ft | 136 kts | 351° |
| 2026-04-15 16:12 | 16.03961 | 108.19893 | 39 ft | 113 kts | 352° |
| 2026-04-15 16:12 | 16.04603 | 108.19802 | 39 ft | 68 kts | 352° |
| 2026-04-15 16:12 | 16.04847 | 108.19782 | 40 ft | 18 kts | 21° |
| 2026-04-15 16:12 | 16.04883 | 108.19844 | 40 ft | 0 kts | 79° |
| 2026-04-15 16:13 | 16.04884 | 108.19854 | 40 ft | 4 kts | 85° |
| 2026-04-15 16:13 | 16.04889 | 108.19899 | 40 ft | 9 kts | 79° |
| 2026-04-15 16:13 | 16.04909 | 108.20019 | 39 ft | 15 kts | 81° |
| 2026-04-15 16:13 | 16.04954 | 108.20082 | 38 ft | 11 kts | 19° |
| 2026-04-15 16:14 | 16.05043 | 108.20082 | 39 ft | 15 kts | 353° |
| 2026-04-15 16:14 | 16.05069 | 108.20079 | 39 ft | 6 kts | 352° |
| 2026-04-15 16:14 | 16.05128 | 108.20070 | 39 ft | 11 kts | 352° |
| 2026-04-15 16:14 | 16.05223 | 108.20056 | 39 ft | 16 kts | 351° |
| 2026-04-15 16:15 | 16.05317 | 108.20042 | 38 ft | 20 kts | 352° |